createdAt,value
2023-03-30T00:01:02.733Z,12.24
2023-03-30T00:03:30.682Z,12.24
2023-03-30T00:06:03.900Z,12.15
2023-03-30T00:08:33.505Z,12.11
2023-03-30T00:11:10.301Z,12.14
2023-03-30T00:13:38.513Z,12.13
2023-03-30T00:16:08.554Z,12.19
2023-03-30T00:18:36.879Z,12.19
2023-03-30T00:21:05.420Z,12.11
2023-03-30T00:23:33.716Z,12.13
2023-03-30T00:26:01.530Z,12.06
2023-03-30T00:28:31.108Z,11.96
2023-03-30T00:30:59.253Z,12.03
2023-03-30T00:33:41.556Z,12.05
2023-03-30T00:36:12.925Z,12.14
2023-03-30T00:38:40.771Z,12.06
2023-03-30T00:41:09.251Z,11.98
2023-03-30T00:44:02.120Z,12.02
2023-03-30T00:46:31.306Z,12.06
2023-03-30T00:49:05.126Z,11.90
2023-03-30T00:51:36.401Z,11.93
2023-03-30T00:54:09.382Z,11.96
2023-03-30T00:56:36.885Z,11.95
2023-03-30T00:59:04.600Z,11.92
2023-03-30T01:01:38.617Z,11.74
2023-03-30T01:04:08.335Z,11.71
2023-03-30T01:06:40.311Z,11.70
2023-03-30T01:09:08.629Z,11.70
2023-03-30T01:11:37.324Z,11.67
2023-03-30T01:14:08.026Z,11.58
2023-03-30T01:16:54.256Z,11.48
2023-03-30T01:19:46.442Z,11.57
2023-03-30T01:22:59.948Z,11.67
2023-03-30T01:25:52.274Z,11.71
2023-03-30T01:28:36.481Z,11.65
2023-03-30T01:31:42.142Z,11.59
2023-03-30T01:34:28.112Z,11.61
2023-03-30T01:37:08.370Z,11.53
2023-03-30T01:39:55.774Z,11.22
2023-03-30T01:43:01.695Z,11.27
2023-03-30T01:45:40.101Z,11.27
2023-03-30T01:48:17.139Z,11.33
2023-03-30T01:50:53.946Z,11.22
2023-03-30T01:53:47.737Z,11.04
2023-03-30T01:56:33.921Z,11.13
2023-03-30T01:59:13.942Z,11.02
2023-03-30T02:01:43.450Z,10.94
2023-03-30T02:04:12.388Z,10.90
2023-03-30T02:06:59.763Z,10.99
2023-03-30T02:09:29.773Z,10.90
2023-03-30T02:11:57.645Z,10.94
2023-03-30T02:14:31.231Z,11.02
2023-03-30T02:17:18.673Z,11.10
2023-03-30T02:19:47.578Z,10.99
2023-03-30T02:22:18.951Z,10.89
2023-03-30T02:24:50.196Z,10.78
2023-03-30T02:27:18.695Z,10.83
2023-03-30T02:29:49.287Z,10.83
2023-03-30T02:32:24.224Z,10.83
2023-03-30T02:35:18.981Z,10.84
2023-03-30T02:38:17.169Z,10.78
2023-03-30T02:40:55.845Z,10.74
2023-03-30T02:43:26.558Z,10.69
2023-03-30T02:46:04.159Z,10.81
2023-03-30T02:48:52.789Z,10.80
2023-03-30T02:51:35.384Z,10.69
2023-03-30T02:54:59.370Z,10.65
2023-03-30T02:58:19.990Z,10.60
2023-03-30T03:00:56.260Z,10.65
2023-03-30T03:03:44.153Z,10.66
2023-03-30T03:06:14.726Z,10.74
2023-03-30T03:08:48.136Z,10.79
2023-03-30T03:11:22.722Z,10.71
2023-03-30T03:13:50.416Z,10.78
2023-03-30T03:16:18.799Z,10.89
2023-03-30T03:19:03.749Z,10.87
2023-03-30T03:21:31.087Z,10.86
2023-03-30T03:23:58.390Z,10.73
2023-03-30T03:26:35.791Z,10.79
2023-03-30T03:29:03.567Z,10.68
2023-03-30T03:31:31.228Z,10.62
2023-03-30T03:33:59.555Z,10.71
2023-03-30T03:36:45.291Z,10.67
2023-03-30T03:39:13.312Z,10.64
2023-03-30T03:41:41.058Z,10.60
2023-03-30T03:44:08.333Z,10.48
2023-03-30T03:46:35.846Z,10.37
2023-03-30T03:49:03.522Z,10.33
2023-03-30T03:51:32.888Z,10.42
2023-03-30T03:54:00.741Z,10.50
2023-03-30T03:56:28.285Z,10.56
2023-03-30T03:58:56.631Z,10.59
2023-03-30T04:01:24.010Z,10.56
2023-03-30T04:03:51.294Z,10.40
2023-03-30T04:06:18.592Z,10.38
2023-03-30T04:08:45.867Z,10.38
2023-03-30T04:11:24.703Z,10.47
2023-03-30T04:14:12.333Z,10.52
2023-03-30T04:16:59.435Z,10.52
2023-03-30T04:19:36.166Z,10.56
2023-03-30T04:22:34.364Z,10.52
2023-03-30T04:25:32.868Z,10.49
2023-03-30T04:28:29.637Z,10.50
2023-03-30T04:31:10.661Z,10.58
2023-03-30T04:33:52.040Z,10.51
2023-03-30T04:36:43.448Z,10.47
2023-03-30T04:39:37.396Z,10.59
2023-03-30T04:42:15.661Z,10.48
2023-03-30T04:44:58.652Z,10.52
2023-03-30T04:47:46.035Z,10.62
2023-03-30T04:51:07.450Z,10.57
2023-03-30T04:53:57.513Z,10.65
2023-03-30T04:56:43.564Z,10.60
2023-03-30T04:59:29.465Z,10.56
2023-03-30T05:02:05.642Z,10.57
2023-03-30T05:04:43.874Z,10.44
2023-03-30T05:07:29.859Z,10.47
2023-03-30T05:10:15.755Z,10.62
2023-03-30T05:13:02.820Z,10.71
2023-03-30T05:15:54.750Z,10.78
2023-03-30T05:18:28.285Z,10.72
2023-03-30T05:21:15.991Z,10.52
2023-03-30T05:24:13.342Z,10.72
2023-03-30T05:26:57.920Z,10.56
2023-03-30T05:29:51.054Z,10.63
2023-03-30T05:32:43.570Z,10.69
2023-03-30T05:35:33.736Z,10.73
2023-03-30T05:38:14.655Z,10.77
2023-03-30T05:41:07.858Z,10.76
2023-03-30T05:43:55.667Z,10.77
2023-03-30T05:46:34.260Z,10.72
2023-03-30T05:49:17.413Z,10.86
2023-03-30T05:51:53.698Z,10.93
2023-03-30T05:54:37.281Z,10.87
2023-03-30T05:57:24.900Z,10.84
2023-03-30T06:00:07.930Z,10.83
2023-03-30T06:02:53.441Z,10.87
2023-03-30T06:05:24.463Z,10.88
2023-03-30T06:07:51.878Z,11.03
2023-03-30T06:10:19.316Z,11.14
2023-03-30T06:12:48.046Z,10.99
2023-03-30T06:15:35.638Z,10.87
2023-03-30T06:18:07.281Z,10.86
2023-03-30T06:20:37.846Z,10.70
2023-03-30T06:26:09.360Z,10.69
2023-03-30T06:28:38.245Z,10.78
2023-03-30T06:31:10.767Z,10.86
2023-03-30T06:33:41.563Z,10.89
2023-03-30T06:36:14.360Z,10.95
2023-03-30T06:38:45.936Z,10.92
2023-03-30T06:41:16.433Z,11.00
2023-03-30T06:43:47.560Z,11.05
2023-03-30T06:46:16.656Z,11.04
2023-03-30T06:48:46.990Z,10.99
2023-03-30T06:51:37.822Z,11.08
2023-03-30T06:54:07.034Z,11.06
2023-03-30T06:56:34.717Z,11.02
2023-03-30T06:59:10.443Z,11.05
2023-03-30T07:02:16.727Z,11.07
2023-03-30T07:05:01.492Z,11.09
2023-03-30T07:07:36.684Z,11.14
2023-03-30T07:10:10.207Z,11.23
2023-03-30T07:12:38.417Z,11.18
2023-03-30T07:15:10.026Z,11.25
2023-03-30T07:17:37.691Z,11.24
2023-03-30T07:20:08.306Z,11.24
2023-03-30T07:22:47.726Z,11.39
2023-03-30T07:25:16.509Z,11.38
2023-03-30T07:27:43.920Z,11.55
2023-03-30T07:30:21.303Z,11.68
2023-03-30T07:32:52.649Z,11.64
2023-03-30T07:35:20.551Z,11.56
2023-03-30T07:37:50.618Z,11.55
2023-03-30T07:40:20.083Z,11.69
2023-03-30T07:42:48.192Z,11.77
2023-03-30T07:45:16.667Z,11.81
2023-03-30T07:47:45.855Z,11.95
2023-03-30T07:50:13.363Z,12.04
2023-03-30T07:52:40.856Z,12.08
2023-03-30T07:55:11.081Z,12.09
2023-03-30T07:57:44.222Z,12.10
2023-03-30T08:00:14.520Z,12.11
2023-03-30T08:03:02.045Z,12.02
2023-03-30T08:05:30.556Z,12.10
2023-03-30T08:08:27.822Z,12.11
2023-03-30T08:10:55.591Z,12.07
2023-03-30T08:13:24.646Z,12.15
2023-03-30T08:15:54.327Z,12.09
2023-03-30T08:18:21.966Z,12.02
2023-03-30T08:20:51.940Z,12.06
2023-03-30T08:23:26.739Z,12.18
2023-03-30T08:25:58.961Z,12.15
2023-03-30T08:28:26.856Z,12.19
2023-03-30T08:30:54.739Z,12.36
2023-03-30T08:33:24.321Z,12.33
2023-03-30T08:35:52.630Z,12.43
2023-03-30T08:38:20.070Z,12.39
2023-03-30T08:40:49.386Z,12.44
2023-03-30T08:43:32.062Z,12.53
2023-03-30T08:46:01.715Z,12.48
2023-03-30T08:48:34.052Z,12.61
2023-03-30T08:51:14.795Z,12.61
2023-03-30T08:53:42.366Z,12.70
2023-03-30T08:56:46.283Z,12.82
2023-03-30T08:59:35.634Z,12.89
2023-03-30T09:02:11.942Z,12.90
2023-03-30T09:05:08.470Z,12.87
2023-03-30T09:07:55.013Z,12.78
2023-03-30T09:10:24.366Z,12.82
2023-03-30T09:13:01.768Z,12.79
2023-03-30T09:15:36.079Z,12.79
2023-03-30T09:18:29.314Z,12.78
2023-03-30T09:20:59.726Z,12.78
2023-03-30T09:24:02.868Z,12.82
2023-03-30T09:26:48.203Z,12.82
2023-03-30T09:29:24.844Z,12.87
2023-03-30T09:32:06.579Z,12.90
2023-03-30T09:34:56.792Z,12.87
2023-03-30T09:37:24.971Z,12.86
2023-03-30T09:39:52.342Z,12.79
2023-03-30T09:42:34.149Z,12.84
2023-03-30T09:45:25.397Z,12.86
2023-03-30T09:47:52.718Z,12.91
2023-03-30T09:50:26.858Z,12.86
2023-03-30T09:53:00.915Z,12.71
2023-03-30T09:55:32.861Z,12.71
2023-03-30T09:58:18.700Z,12.82
2023-03-30T10:01:00.724Z,12.92
2023-03-30T10:03:28.342Z,12.94
2023-03-30T10:06:02.112Z,12.96
2023-03-30T10:08:30.381Z,13.06
2023-03-30T10:10:59.667Z,13.06
2023-03-30T10:13:37.457Z,13.09
2023-03-30T10:16:08.483Z,13.08
2023-03-30T10:18:44.588Z,13.20
2023-03-30T10:21:19.209Z,13.24
2023-03-30T10:24:01.693Z,13.35
2023-03-30T10:26:30.660Z,13.26
2023-03-30T10:29:07.430Z,13.11
2023-03-30T10:31:37.591Z,13.18
2023-03-30T10:34:18.802Z,13.30
2023-03-30T10:36:50.173Z,13.22
2023-03-30T10:39:27.786Z,13.25
2023-03-30T10:41:59.670Z,13.29
2023-03-30T10:44:32.362Z,13.34
2023-03-30T10:47:51.204Z,13.52
2023-03-30T10:50:56.448Z,13.81
2023-03-30T10:53:40.633Z,13.92
2023-03-30T10:56:23.323Z,13.97
2023-03-30T10:59:26.670Z,13.79
2023-03-30T11:02:17.637Z,13.52
2023-03-30T11:05:14.430Z,13.41
2023-03-30T11:07:47.575Z,13.52
2023-03-30T11:10:20.887Z,13.46
2023-03-30T11:12:56.929Z,13.39
2023-03-30T11:15:37.639Z,13.46
2023-03-30T11:18:21.922Z,13.46
2023-03-30T11:21:01.329Z,13.63
2023-03-30T11:23:47.657Z,13.55
2023-03-30T11:26:36.159Z,13.28
2023-03-30T11:29:18.485Z,13.49
2023-03-30T11:31:51.975Z,13.62
2023-03-30T11:34:35.800Z,13.60
2023-03-30T11:37:35.602Z,13.69
2023-03-30T11:40:19.961Z,13.77
2023-03-30T11:42:47.844Z,13.74
2023-03-30T11:46:04.491Z,13.74
2023-03-30T11:48:44.009Z,13.93
2023-03-30T11:51:18.868Z,13.91
2023-03-30T11:54:13.296Z,14.00
2023-03-30T11:56:49.780Z,14.29
2023-03-30T11:59:22.440Z,14.27
2023-03-30T12:02:06.553Z,14.12
2023-03-30T12:04:52.811Z,14.02
2023-03-30T12:07:44.593Z,14.11
2023-03-30T12:10:21.242Z,14.08
2023-03-30T12:12:51.979Z,14.16
2023-03-30T12:15:42.927Z,14.11
2023-03-30T12:18:34.559Z,14.36
2023-03-30T12:21:01.963Z,14.62
2023-03-30T12:26:49.109Z,14.62
2023-03-30T12:32:30.980Z,14.75
2023-03-30T12:34:58.851Z,14.82
2023-03-30T12:37:36.174Z,14.89
2023-03-30T12:40:22.717Z,14.87
2023-03-30T12:43:10.950Z,15.08
2023-03-30T12:46:14.115Z,15.22
2023-03-30T12:48:57.362Z,15.16
2023-03-30T12:51:54.839Z,15.10
2023-03-30T12:54:49.179Z,14.93
2023-03-30T12:57:34.961Z,14.99
2023-03-30T13:00:48.064Z,15.03
2023-03-30T13:03:29.443Z,15.27
2023-03-30T13:05:59.049Z,15.09
2023-03-30T13:08:35.950Z,15.29
2023-03-30T13:11:14.141Z,15.38
2023-03-30T13:14:14.346Z,15.42
2023-03-30T13:16:51.449Z,15.34
2023-03-30T13:19:32.538Z,15.65
2023-03-30T13:22:03.371Z,15.51
2023-03-30T13:24:30.813Z,15.53
2023-03-30T13:27:16.962Z,15.73
2023-03-30T13:30:08.782Z,15.76
2023-03-30T13:33:16.848Z,15.84
2023-03-30T13:36:06.398Z,15.79
2023-03-30T13:38:40.387Z,15.87
2023-03-30T13:41:22.521Z,15.78
2023-03-30T13:43:58.959Z,15.74
2023-03-30T13:46:40.938Z,15.68
2023-03-30T13:49:51.698Z,15.70
2023-03-30T13:52:32.341Z,15.85
2023-03-30T13:55:02.027Z,15.63
2023-03-30T13:57:36.864Z,15.56
2023-03-30T14:00:22.425Z,15.69
2023-03-30T14:02:49.823Z,15.62
2023-03-30T14:05:24.180Z,15.41
2023-03-30T14:07:59.008Z,15.39
2023-03-30T14:10:27.375Z,15.53
2023-03-30T14:12:56.947Z,15.53
2023-03-30T14:15:34.958Z,15.37
2023-03-30T14:18:04.681Z,15.48
2023-03-30T14:20:46.882Z,15.48
2023-03-30T14:23:36.455Z,15.64
2023-03-30T14:26:13.107Z,15.63
2023-03-30T14:28:42.597Z,15.51
2023-03-30T14:31:19.038Z,15.58
2023-03-30T14:33:47.453Z,15.33
2023-03-30T14:36:18.307Z,15.38
2023-03-30T14:38:49.093Z,15.50
2023-03-30T14:41:24.971Z,15.44
2023-03-30T14:44:07.629Z,15.46
2023-03-30T14:46:43.340Z,15.53
2023-03-30T14:49:31.888Z,15.62
2023-03-30T14:52:10.079Z,15.44
2023-03-30T14:54:38.558Z,15.49
2023-03-30T14:57:08.977Z,15.74
2023-03-30T14:59:47.335Z,15.87
2023-03-30T15:02:21.165Z,15.86
2023-03-30T15:04:50.625Z,15.57
2023-03-30T15:07:20.829Z,15.50
2023-03-30T15:09:54.580Z,15.67
2023-03-30T15:12:44.601Z,15.60
2023-03-30T15:15:15.657Z,15.62
2023-03-30T15:17:50.002Z,15.63
2023-03-30T15:20:18.626Z,15.63
2023-03-30T15:22:50.232Z,15.53
2023-03-30T15:25:20.700Z,15.58
2023-03-30T15:28:09.571Z,15.59
2023-03-30T15:30:39.865Z,15.60
2023-03-30T15:33:19.849Z,15.64
2023-03-30T15:35:50.639Z,15.70
2023-03-30T15:38:19.271Z,15.80
2023-03-30T15:40:52.750Z,15.77
2023-03-30T15:43:22.716Z,15.78
2023-03-30T15:45:57.453Z,15.69
2023-03-30T15:48:32.005Z,15.62
2023-03-30T15:51:33.229Z,15.53
2023-03-30T15:54:03.713Z,15.51
2023-03-30T15:56:39.886Z,15.46
2023-03-30T15:59:16.029Z,15.42
2023-03-30T16:01:54.016Z,15.41
2023-03-30T16:04:24.354Z,15.65
2023-03-30T16:06:52.872Z,15.59
2023-03-30T16:09:20.282Z,15.57
2023-03-30T16:11:47.709Z,15.47
2023-03-30T16:14:18.233Z,15.45
2023-03-30T16:16:46.077Z,15.46
2023-03-30T16:19:17.402Z,15.52
2023-03-30T16:21:45.544Z,15.48
2023-03-30T16:24:13.297Z,15.44
2023-03-30T16:26:41.291Z,15.44
2023-03-30T16:29:35.083Z,15.44
2023-03-30T16:32:03.133Z,15.42
2023-03-30T16:34:30.867Z,15.42
2023-03-30T16:36:58.276Z,15.39
2023-03-30T16:39:27.934Z,15.42
2023-03-30T16:41:56.035Z,15.33
2023-03-30T16:44:24.804Z,15.36
2023-03-30T16:46:53.051Z,15.43
2023-03-30T16:49:23.517Z,15.37
2023-03-30T16:51:55.087Z,15.34
2023-03-30T16:54:31.956Z,15.37
2023-03-30T16:57:03.076Z,15.38
2023-03-30T16:59:32.154Z,15.37
2023-03-30T17:02:00.165Z,15.45
2023-03-30T17:04:27.932Z,15.41
2023-03-30T17:06:55.764Z,15.34
2023-03-30T17:09:23.518Z,15.42
2023-03-30T17:11:51.138Z,15.32
2023-03-30T17:14:20.222Z,15.21
2023-03-30T17:16:47.864Z,15.26
2023-03-30T17:19:15.346Z,15.26
2023-03-30T17:21:43.867Z,15.18
2023-03-30T17:24:16.958Z,15.22
2023-03-30T17:26:44.576Z,15.19
2023-03-30T17:29:15.020Z,15.17
2023-03-30T17:31:45.868Z,15.18
2023-03-30T17:34:13.987Z,15.17
2023-03-30T17:36:41.909Z,15.20
2023-03-30T17:39:13.235Z,15.19
2023-03-30T17:41:41.235Z,15.17
2023-03-30T17:44:09.457Z,15.14
2023-03-30T17:46:37.125Z,15.09
2023-03-30T17:49:04.563Z,15.02
2023-03-30T17:51:31.937Z,15.09
2023-03-30T17:53:59.321Z,14.99
2023-03-30T17:56:26.795Z,14.98
2023-03-30T17:58:54.156Z,15.02
2023-03-30T18:01:21.564Z,14.97
2023-03-30T18:03:49.188Z,14.98
2023-03-30T18:06:17.104Z,14.96
2023-03-30T18:08:44.550Z,14.97
2023-03-30T18:11:11.981Z,14.92
2023-03-30T18:13:39.336Z,14.92
2023-03-30T18:16:07.029Z,14.90
2023-03-30T18:18:34.556Z,14.87
2023-03-30T18:21:04.627Z,14.88
2023-03-30T18:23:34.435Z,14.94
2023-03-30T18:26:08.328Z,14.89
2023-03-30T18:28:40.530Z,14.87
2023-03-30T18:31:08.948Z,14.89
2023-03-30T18:33:36.603Z,14.79
2023-03-30T18:36:07.556Z,14.80
2023-03-30T18:38:35.894Z,14.89
2023-03-30T18:41:03.479Z,14.87
2023-03-30T18:43:31.072Z,14.88
2023-03-30T18:46:01.745Z,14.81
2023-03-30T18:48:30.621Z,14.82
2023-03-30T18:50:58.479Z,14.76
2023-03-30T18:53:28.420Z,14.82
2023-03-30T18:56:00.333Z,14.78
2023-03-30T18:58:30.504Z,14.78
2023-03-30T19:00:58.034Z,14.69
2023-03-30T19:03:33.124Z,14.72
2023-03-30T19:06:01.035Z,14.76
2023-03-30T19:08:28.986Z,14.73
2023-03-30T19:10:57.829Z,14.69
2023-03-30T19:13:26.544Z,14.76
2023-03-30T19:15:54.968Z,14.68
2023-03-30T19:18:22.451Z,14.69
2023-03-30T19:20:51.024Z,14.74
2023-03-30T19:23:21.711Z,14.77
2023-03-30T19:25:49.548Z,14.73
2023-03-30T19:28:17.524Z,14.72
2023-03-30T19:30:45.453Z,14.70
2023-03-30T19:33:16.525Z,14.69
2023-03-30T19:35:45.354Z,14.60
2023-03-30T19:38:14.093Z,14.70
2023-03-30T19:40:41.802Z,14.72
2023-03-30T19:43:09.756Z,14.67
2023-03-30T19:45:37.711Z,14.64
2023-03-30T19:48:05.594Z,14.64
2023-03-30T19:50:33.104Z,14.69
2023-03-30T19:53:00.530Z,14.57
2023-03-30T19:55:27.986Z,14.53
2023-03-30T19:57:55.795Z,14.53
2023-03-30T20:00:23.449Z,14.55
2023-03-30T20:02:54.593Z,14.61
2023-03-30T20:05:23.783Z,14.61
2023-03-30T20:07:51.986Z,14.61
2023-03-30T20:10:22.810Z,14.63
2023-03-30T20:12:51.312Z,14.56
2023-03-30T20:15:20.231Z,14.54
2023-03-30T20:17:48.093Z,14.54
2023-03-30T20:20:22.653Z,14.49
2023-03-30T20:22:53.427Z,14.47
2023-03-30T20:25:21.809Z,14.43
2023-03-30T20:27:49.485Z,14.51
2023-03-30T20:30:17.122Z,14.40
2023-03-30T20:32:53.022Z,14.42
2023-03-30T20:35:27.498Z,14.47
2023-03-30T20:37:55.474Z,14.38
2023-03-30T20:40:24.131Z,14.38
2023-03-30T20:42:51.504Z,14.33
2023-03-30T20:45:26.056Z,14.35
2023-03-30T20:47:53.936Z,14.39
2023-03-30T20:50:21.528Z,14.39
2023-03-30T20:52:48.891Z,14.38
2023-03-30T20:55:16.987Z,14.31
2023-03-30T20:57:44.345Z,14.22
2023-03-30T21:00:12.721Z,14.17
2023-03-30T21:02:40.858Z,14.06
2023-03-30T21:05:09.058Z,13.97
2023-03-30T21:07:38.404Z,14.01
2023-03-30T21:10:06.712Z,13.97
2023-03-30T21:12:34.224Z,13.79
2023-03-30T21:15:01.665Z,13.88
2023-03-30T21:17:29.145Z,13.72
2023-03-30T21:19:56.564Z,13.62
2023-03-30T21:22:23.918Z,13.55
2023-03-30T21:25:17.119Z,13.62
2023-03-30T21:27:44.428Z,13.44
2023-03-30T21:30:13.472Z,13.57
2023-03-30T21:32:41.530Z,13.50
2023-03-30T21:35:09.208Z,13.39
2023-03-30T21:37:36.604Z,13.32
2023-03-30T21:40:06.582Z,13.31
2023-03-30T21:42:35.296Z,13.14
2023-03-30T21:45:02.771Z,13.15
2023-03-30T21:47:30.498Z,13.20
2023-03-30T21:49:57.859Z,13.10
2023-03-30T21:52:25.176Z,13.08
2023-03-30T21:54:52.702Z,13.00
2023-03-30T21:57:20.471Z,12.88
2023-03-30T21:59:47.831Z,12.87
2023-03-30T22:02:15.498Z,12.88
2023-03-30T22:04:44.357Z,12.84
2023-03-30T22:07:11.908Z,12.71
2023-03-30T22:09:39.363Z,12.70
2023-03-30T22:12:07.694Z,12.80
2023-03-30T22:14:35.696Z,12.81
2023-03-30T22:17:03.559Z,12.68
2023-03-30T22:19:32.018Z,12.67
2023-03-30T22:21:59.932Z,12.63
2023-03-30T22:24:27.448Z,12.65
2023-03-30T22:26:54.802Z,12.52
2023-03-30T22:29:23.274Z,12.57
2023-03-30T22:31:52.892Z,12.56
2023-03-30T22:34:21.032Z,12.43
2023-03-30T22:36:48.427Z,12.48
2023-03-30T22:39:16.701Z,12.49
2023-03-30T22:41:44.035Z,12.35
2023-03-30T22:44:11.390Z,12.43
2023-03-30T22:46:38.930Z,12.37
2023-03-30T22:49:06.236Z,12.55
2023-03-30T22:51:34.112Z,12.39
2023-03-30T22:54:01.501Z,12.25
2023-03-30T22:56:29.516Z,12.27
2023-03-30T22:58:58.839Z,12.29
2023-03-30T23:01:29.114Z,12.26
2023-03-30T23:03:59.513Z,12.28
2023-03-30T23:06:27.213Z,12.33
2023-03-30T23:08:54.627Z,12.35
2023-03-30T23:11:22.065Z,12.35
2023-03-30T23:13:49.926Z,12.32
2023-03-30T23:16:17.500Z,12.37
2023-03-30T23:18:44.904Z,12.28
2023-03-30T23:21:14.196Z,12.32
2023-03-30T23:23:42.068Z,12.31
2023-03-30T23:26:11.018Z,12.25
2023-03-30T23:28:41.343Z,12.41
2023-03-30T23:31:12.063Z,12.35
2023-03-30T23:33:40.534Z,12.25
2023-03-30T23:36:09.557Z,12.24
2023-03-30T23:38:37.794Z,12.19
2023-03-30T23:41:06.372Z,12.11
2023-03-30T23:43:33.770Z,12.21
2023-03-30T23:46:01.191Z,12.15
2023-03-30T23:48:28.787Z,12.32
2023-03-30T23:50:57.172Z,12.24
2023-03-30T23:53:26.629Z,12.35
2023-03-30T23:55:54.756Z,12.27
2023-03-30T23:58:22.374Z,12.27
